createdAt,value
2023-03-06T00:00:09.422Z,61.38
2023-03-06T00:02:41.895Z,61.27
2023-03-06T00:05:12.091Z,61.19
2023-03-06T00:07:45.725Z,60.98
2023-03-06T00:10:18.486Z,60.53
2023-03-06T00:12:48.810Z,60.77
2023-03-06T00:15:18.701Z,61.10
2023-03-06T00:17:48.911Z,61.34
2023-03-06T00:20:19.944Z,61.11
2023-03-06T00:22:52.631Z,61.06
2023-03-06T00:25:24.519Z,60.82
2023-03-06T00:27:55.012Z,61.29
2023-03-06T00:30:28.175Z,61.15
2023-03-06T00:32:58.032Z,61.13
2023-03-06T00:35:27.929Z,61.42
2023-03-06T00:38:00.644Z,61.27
2023-03-06T00:40:30.565Z,61.34
2023-03-06T00:43:00.463Z,61.13
2023-03-06T00:45:30.476Z,61.26
2023-03-06T00:48:00.449Z,61.21
2023-03-06T00:50:30.534Z,61.30
2023-03-06T00:53:05.462Z,60.79
2023-03-06T00:55:35.356Z,60.98
2023-03-06T00:58:05.230Z,61.05
2023-03-06T01:00:35.703Z,61.51
2023-03-06T01:03:05.713Z,61.33
2023-03-06T01:05:38.228Z,61.18
2023-03-06T01:08:12.104Z,61.31
2023-03-06T01:10:43.215Z,61.19
2023-03-06T01:13:13.299Z,61.25
2023-03-06T01:15:43.205Z,61.37
2023-03-06T01:18:13.208Z,61.86
2023-03-06T01:20:43.248Z,61.36
2023-03-06T01:23:15.691Z,61.84
2023-03-06T01:25:45.617Z,61.58
2023-03-06T01:28:15.516Z,61.65
2023-03-06T01:30:45.455Z,61.87
2023-03-06T01:33:15.401Z,62.04
2023-03-06T01:35:45.487Z,61.74
2023-03-06T01:38:19.164Z,61.76
2023-03-06T01:40:49.500Z,62.22
2023-03-06T01:43:31.009Z,62.13
2023-03-06T01:46:31.201Z,62.22
2023-03-06T01:49:05.639Z,62.10
2023-03-06T01:51:41.165Z,61.76
2023-03-06T01:54:19.482Z,62.03
2023-03-06T01:56:54.108Z,61.91
2023-03-06T01:59:27.039Z,61.87
2023-03-06T02:01:59.244Z,62.20
2023-03-06T02:04:29.621Z,61.95
2023-03-06T02:07:04.875Z,62.03
2023-03-06T02:09:41.351Z,62.13
2023-03-06T02:12:16.309Z,62.56
2023-03-06T02:14:47.580Z,62.30
2023-03-06T02:17:21.688Z,62.45
2023-03-06T02:20:02.852Z,62.59
2023-03-06T02:22:40.737Z,63.11
2023-03-06T02:25:29.286Z,62.95
2023-03-06T02:27:59.593Z,63.05
2023-03-06T02:30:31.092Z,62.91
2023-03-06T02:33:01.303Z,63.25
2023-03-06T02:35:33.915Z,63.10
2023-03-06T02:38:10.751Z,63.22
2023-03-06T02:40:48.052Z,62.95
2023-03-06T02:43:23.035Z,62.99
2023-03-06T02:45:54.889Z,63.53
2023-03-06T02:48:24.867Z,63.50
2023-03-06T02:50:54.894Z,63.60
2023-03-06T02:53:24.833Z,63.59
2023-03-06T02:55:58.112Z,63.58
2023-03-06T02:58:28.052Z,63.56
2023-03-06T03:00:58.086Z,64.08
2023-03-06T03:03:29.491Z,63.63
2023-03-06T03:06:00.449Z,64.19
2023-03-06T03:08:34.903Z,64.04
2023-03-06T03:11:09.339Z,63.43
2023-03-06T03:13:42.852Z,63.43
2023-03-06T03:16:18.158Z,63.24
2023-03-06T03:18:48.252Z,64.43
2023-03-06T03:21:20.776Z,63.96
2023-03-06T03:23:51.663Z,63.41
2023-03-06T03:26:25.375Z,63.66
2023-03-06T03:29:05.185Z,63.83
2023-03-06T03:31:35.600Z,64.38
2023-03-06T03:34:06.195Z,63.95
2023-03-06T03:36:40.028Z,64.37
2023-03-06T03:39:11.981Z,63.77
2023-03-06T03:41:46.193Z,64.16
2023-03-06T03:44:16.387Z,65.20
2023-03-06T03:46:46.337Z,65.04
2023-03-06T03:49:21.333Z,64.96
2023-03-06T03:51:51.632Z,64.88
2023-03-06T03:54:22.712Z,65.52
2023-03-06T03:56:57.520Z,65.49
2023-03-06T03:59:31.873Z,65.18
2023-03-06T04:02:09.872Z,64.63
2023-03-06T04:04:48.320Z,64.57
2023-03-06T04:07:18.367Z,64.66
2023-03-06T04:09:49.164Z,64.34
2023-03-06T04:12:21.646Z,64.56
2023-03-06T04:14:51.596Z,64.41
2023-03-06T04:17:21.745Z,64.73
2023-03-06T04:19:51.872Z,64.95
2023-03-06T04:22:22.556Z,64.42
2023-03-06T04:24:52.744Z,64.96
2023-03-06T04:27:26.456Z,64.70
2023-03-06T04:29:56.936Z,65.30
2023-03-06T04:32:27.295Z,65.26
2023-03-06T04:34:57.228Z,65.25
2023-03-06T04:37:29.716Z,65.75
2023-03-06T04:40:01.289Z,65.36
2023-03-06T04:42:33.911Z,64.87
2023-03-06T04:45:03.802Z,65.04
2023-03-06T04:47:33.722Z,66.02
2023-03-06T04:50:04.007Z,65.59
2023-03-06T04:52:33.893Z,65.56
2023-03-06T04:55:08.576Z,65.40
2023-03-06T04:57:42.834Z,65.72
2023-03-06T05:00:18.851Z,65.42
2023-03-06T05:02:49.202Z,64.99
2023-03-06T05:05:20.415Z,65.68
2023-03-06T05:07:50.276Z,65.78
2023-03-06T05:10:21.575Z,65.35
2023-03-06T05:12:54.340Z,65.82
2023-03-06T05:15:24.193Z,65.78
2023-03-06T05:17:54.181Z,65.39
2023-03-06T05:20:24.488Z,65.23
2023-03-06T05:22:54.557Z,65.24
2023-03-06T05:25:24.455Z,65.62
2023-03-06T05:27:56.931Z,65.84
2023-03-06T05:30:26.887Z,65.40
2023-03-06T05:32:56.754Z,65.27
2023-03-06T05:35:27.319Z,65.08
2023-03-06T05:37:57.673Z,65.15
2023-03-06T05:40:27.587Z,65.63
2023-03-06T05:42:59.996Z,65.65
2023-03-06T05:45:30.041Z,65.38
2023-03-06T05:47:59.948Z,64.84
2023-03-06T05:50:30.223Z,64.84
2023-03-06T05:53:00.295Z,65.25
2023-03-06T05:55:30.256Z,65.59
2023-03-06T05:58:02.746Z,65.39
2023-03-06T06:00:32.815Z,65.82
2023-03-06T06:03:03.836Z,65.15
2023-03-06T06:05:33.733Z,64.73
2023-03-06T06:08:03.625Z,64.87
2023-03-06T06:10:33.535Z,64.91
2023-03-06T06:13:06.074Z,65.05
2023-03-06T06:15:36.325Z,65.11
2023-03-06T06:18:06.417Z,65.61
2023-03-06T06:20:36.610Z,65.03
2023-03-06T06:23:06.596Z,65.52
2023-03-06T06:25:36.704Z,66.01
2023-03-06T06:28:09.205Z,66.06
2023-03-06T06:30:39.112Z,65.96
2023-03-06T06:33:09.025Z,65.83
2023-03-06T06:35:39.712Z,65.70
2023-03-06T06:38:09.693Z,65.83
2023-03-06T06:40:39.608Z,65.59
2023-03-06T06:43:12.084Z,65.62
2023-03-06T06:45:43.415Z,66.24
2023-03-06T06:48:14.733Z,66.15
2023-03-06T06:50:45.969Z,66.50
2023-03-06T06:53:15.792Z,66.35
2023-03-06T06:55:45.685Z,66.82
2023-03-06T06:58:18.167Z,67.04
2023-03-06T07:00:48.112Z,66.96
2023-03-06T07:03:18.147Z,66.78
2023-03-06T07:05:48.102Z,66.68
2023-03-06T07:08:18.088Z,66.91
2023-03-06T07:10:47.988Z,66.87
2023-03-06T07:13:20.726Z,66.77
2023-03-06T07:15:50.878Z,66.97
2023-03-06T07:18:20.937Z,67.08
2023-03-06T07:20:51.182Z,67.00
2023-03-06T07:23:21.434Z,67.06
2023-03-06T07:25:51.764Z,67.22
2023-03-06T07:28:25.001Z,66.78
2023-03-06T07:30:54.987Z,67.17
2023-03-06T07:33:25.057Z,67.46
2023-03-06T07:35:55.098Z,67.25
2023-03-06T07:38:25.304Z,67.00
2023-03-06T07:40:55.687Z,67.42
2023-03-06T07:43:28.139Z,67.38
2023-03-06T07:46:04.235Z,67.59
2023-03-06T07:48:34.157Z,67.32
2023-03-06T07:51:06.427Z,67.19
2023-03-06T07:53:37.854Z,67.21
2023-03-06T07:56:11.212Z,67.07
2023-03-06T07:58:46.854Z,67.23
2023-03-06T08:01:19.761Z,67.11
2023-03-06T08:03:50.711Z,67.08
2023-03-06T08:06:22.632Z,66.73
2023-03-06T08:08:54.116Z,66.84
2023-03-06T08:11:26.143Z,66.69
2023-03-06T08:14:00.731Z,67.05
2023-03-06T08:16:33.428Z,67.08
2023-03-06T08:19:03.488Z,66.78
2023-03-06T08:21:33.509Z,66.60
2023-03-06T08:24:03.487Z,66.52
2023-03-06T08:26:35.621Z,66.97
2023-03-06T08:29:08.148Z,66.67
2023-03-06T08:31:40.399Z,66.40
2023-03-06T08:34:13.287Z,66.53
2023-03-06T08:36:43.676Z,66.19
2023-03-06T08:39:14.340Z,66.44
2023-03-06T08:41:44.825Z,66.52
2023-03-06T08:44:17.431Z,66.40
2023-03-06T08:46:47.344Z,66.59
2023-03-06T08:49:17.252Z,66.34
2023-03-06T08:51:47.219Z,66.38
2023-03-06T08:54:17.206Z,66.41
2023-03-06T08:56:47.140Z,66.45
2023-03-06T08:59:19.680Z,66.52
2023-03-06T09:01:49.614Z,66.39
2023-03-06T09:04:19.484Z,66.20
2023-03-06T09:06:49.491Z,66.17
2023-03-06T09:09:19.616Z,66.15
2023-03-06T09:11:51.300Z,66.02
2023-03-06T09:14:23.795Z,65.66
2023-03-06T09:16:53.829Z,66.09
2023-03-06T09:19:23.804Z,65.76
2023-03-06T09:21:54.188Z,65.76
2023-03-06T09:24:24.183Z,65.80
2023-03-06T09:26:54.151Z,65.56
2023-03-06T09:29:26.720Z,65.10
2023-03-06T09:31:56.788Z,65.16
2023-03-06T09:34:27.761Z,65.06
2023-03-06T09:36:57.919Z,65.04
2023-03-06T09:39:29.350Z,64.58
2023-03-06T09:42:00.067Z,64.68
2023-03-06T09:44:36.974Z,64.46
2023-03-06T09:47:38.765Z,63.95
2023-03-06T09:50:23.184Z,64.03
2023-03-06T09:53:07.687Z,64.35
2023-03-06T09:55:41.376Z,64.03
2023-03-06T09:58:19.935Z,64.06
2023-03-06T10:01:03.139Z,64.38
2023-03-06T10:03:39.497Z,63.94
2023-03-06T10:06:17.944Z,64.15
2023-03-06T10:08:55.282Z,63.94
2023-03-06T10:11:34.503Z,63.48
2023-03-06T10:14:21.321Z,63.71
2023-03-06T10:16:53.862Z,63.44
2023-03-06T10:19:24.853Z,62.76
2023-03-06T10:22:03.046Z,63.04
2023-03-06T10:24:49.302Z,61.66
2023-03-06T10:27:34.305Z,62.19
2023-03-06T10:30:18.428Z,61.53
2023-03-06T10:32:58.719Z,60.52
2023-03-06T10:35:33.638Z,60.69
2023-03-06T10:38:15.831Z,60.57
2023-03-06T10:40:57.914Z,61.14
2023-03-06T10:43:28.934Z,60.66
2023-03-06T10:45:59.847Z,60.41
2023-03-06T10:48:36.182Z,60.11
2023-03-06T10:51:19.595Z,60.47
2023-03-06T10:53:58.141Z,59.68
2023-03-06T10:56:33.578Z,59.03
2023-03-06T10:59:12.054Z,58.12
2023-03-06T11:01:43.017Z,58.26
2023-03-06T11:04:28.143Z,58.92
2023-03-06T11:07:09.829Z,58.59
2023-03-06T11:09:39.830Z,58.08
2023-03-06T11:12:29.683Z,58.47
2023-03-06T11:15:26.910Z,58.23
2023-03-06T11:18:04.412Z,57.75
2023-03-06T11:20:52.016Z,57.66
2023-03-06T11:23:31.978Z,57.52
2023-03-06T11:26:11.666Z,57.22
2023-03-06T11:28:48.937Z,56.20
2023-03-06T11:31:23.631Z,56.31
2023-03-06T11:34:03.389Z,56.04
2023-03-06T11:36:42.690Z,55.52
2023-03-06T11:39:24.995Z,55.52
2023-03-06T11:42:06.123Z,54.93
2023-03-06T11:44:52.214Z,55.15
2023-03-06T11:47:28.635Z,55.29
2023-03-06T11:50:16.556Z,54.95
2023-03-06T11:52:54.153Z,54.06
2023-03-06T11:55:36.383Z,54.13
2023-03-06T11:58:47.243Z,54.35
2023-03-06T12:01:30.121Z,54.20
2023-03-06T12:04:36.376Z,54.00
2023-03-06T12:07:22.255Z,53.93
2023-03-06T12:10:01.456Z,53.92
2023-03-06T12:13:03.240Z,53.30
2023-03-06T12:15:49.990Z,54.02
2023-03-06T12:18:35.006Z,53.46
2023-03-06T12:21:10.527Z,53.15
2023-03-06T12:24:10.144Z,53.96
2023-03-06T12:26:59.925Z,53.69
2023-03-06T12:29:52.341Z,53.72
2023-03-06T12:32:38.642Z,53.59
2023-03-06T12:35:46.581Z,53.89
2023-03-06T12:38:39.812Z,53.76
2023-03-06T12:41:22.555Z,54.25
2023-03-06T12:44:33.244Z,54.38
2023-03-06T12:47:07.715Z,54.42
2023-03-06T12:49:42.025Z,53.71
2023-03-06T12:52:30.223Z,53.55
2023-03-06T12:55:04.046Z,53.90
2023-03-06T12:57:34.002Z,54.23
2023-03-06T13:00:08.548Z,54.57
2023-03-06T13:03:02.094Z,54.30
2023-03-06T13:06:03.684Z,54.68
2023-03-06T13:09:17.860Z,54.80
2023-03-06T13:12:18.869Z,54.53
2023-03-06T13:15:00.990Z,54.44
2023-03-06T13:17:42.659Z,54.81
2023-03-06T13:20:38.725Z,55.02
2023-03-06T13:23:39.184Z,55.30
2023-03-06T13:26:13.816Z,55.37
2023-03-06T13:28:50.221Z,55.11
2023-03-06T13:31:30.353Z,55.32
2023-03-06T13:34:05.365Z,54.83
2023-03-06T13:36:39.686Z,55.03
2023-03-06T13:39:11.421Z,55.32
2023-03-06T13:41:45.858Z,55.02
2023-03-06T13:44:51.475Z,55.55
2023-03-06T13:48:09.581Z,55.55
2023-03-06T13:50:47.113Z,55.35
2023-03-06T13:53:48.794Z,55.88
2023-03-06T13:57:03.518Z,55.56
2023-03-06T14:00:08.774Z,56.22
2023-03-06T14:03:02.806Z,56.63
2023-03-06T14:05:44.209Z,57.02
2023-03-06T14:08:21.370Z,57.27
2023-03-06T14:11:03.648Z,57.63
2023-03-06T14:13:47.171Z,58.59
2023-03-06T14:16:23.679Z,58.65
2023-03-06T14:18:56.482Z,58.83
2023-03-06T14:21:32.986Z,59.37
2023-03-06T14:24:07.683Z,59.51
2023-03-06T14:26:46.134Z,59.02
2023-03-06T14:29:24.887Z,59.58
2023-03-06T14:31:58.042Z,59.64
2023-03-06T14:34:30.726Z,59.55
2023-03-06T14:37:05.584Z,59.17
2023-03-06T14:39:41.975Z,58.93
2023-03-06T14:42:20.365Z,58.80
2023-03-06T14:44:51.856Z,58.75
2023-03-06T14:47:29.403Z,58.81
2023-03-06T14:50:24.291Z,58.45
2023-03-06T14:52:58.970Z,58.57
2023-03-06T14:55:36.110Z,58.38
2023-03-06T14:58:14.514Z,59.06
2023-03-06T15:00:50.121Z,58.66
2023-03-06T15:03:24.883Z,59.70
2023-03-06T15:05:55.719Z,59.42
2023-03-06T15:08:32.922Z,59.77
2023-03-06T15:11:07.775Z,60.03
2023-03-06T15:13:38.573Z,60.08
2023-03-06T15:16:11.252Z,60.65
2023-03-06T15:18:56.870Z,60.46
2023-03-06T15:21:29.411Z,60.91
2023-03-06T15:24:00.601Z,60.55
2023-03-06T15:26:37.031Z,60.65
2023-03-06T15:29:24.712Z,60.48
2023-03-06T15:31:54.616Z,60.23
2023-03-06T15:34:26.482Z,60.66
2023-03-06T15:36:58.576Z,60.81
2023-03-06T15:39:34.306Z,60.06
2023-03-06T15:42:19.259Z,59.55
2023-03-06T15:44:55.721Z,59.25
2023-03-06T15:47:26.364Z,58.12
2023-03-06T15:49:56.964Z,57.87
2023-03-06T15:52:27.068Z,57.98
2023-03-06T15:54:56.984Z,57.84
2023-03-06T15:57:31.861Z,57.83
2023-03-06T16:00:04.476Z,57.28
2023-03-06T16:02:41.360Z,57.27
2023-03-06T16:05:18.360Z,57.12
2023-03-06T16:07:48.485Z,57.22
2023-03-06T16:10:22.483Z,56.80
2023-03-06T16:12:59.732Z,56.58
2023-03-06T16:15:30.925Z,56.42
2023-03-06T16:18:02.793Z,56.42
2023-03-06T16:20:32.875Z,56.39
2023-03-06T16:23:07.888Z,56.19
2023-03-06T16:25:38.212Z,55.72
2023-03-06T16:28:15.583Z,55.79
2023-03-06T16:30:47.131Z,55.87
2023-03-06T16:33:17.554Z,55.98
2023-03-06T16:35:47.568Z,55.97
2023-03-06T16:38:18.396Z,55.83
2023-03-06T16:40:48.373Z,56.11
2023-03-06T16:43:20.830Z,56.36
2023-03-06T16:45:50.893Z,56.48
2023-03-06T16:48:20.860Z,56.20
2023-03-06T16:50:50.816Z,56.54
2023-03-06T16:53:21.300Z,56.57
2023-03-06T16:55:51.324Z,56.76
2023-03-06T16:58:23.807Z,56.96
2023-03-06T17:00:54.591Z,57.05
2023-03-06T17:03:25.236Z,57.06
2023-03-06T17:05:55.151Z,56.88
2023-03-06T17:08:25.125Z,56.69
2023-03-06T17:10:55.141Z,57.10
2023-03-06T17:13:27.745Z,57.35
2023-03-06T17:15:59.563Z,57.04
2023-03-06T17:18:31.155Z,57.07
2023-03-06T17:21:02.081Z,57.22
2023-03-06T17:23:32.120Z,57.30
2023-03-06T17:26:10.885Z,57.65
2023-03-06T17:28:44.462Z,57.44
2023-03-06T17:31:16.533Z,57.33
2023-03-06T17:33:46.786Z,57.58
2023-03-06T17:36:19.441Z,57.76
2023-03-06T17:38:49.905Z,57.77
2023-03-06T17:41:19.919Z,57.86
2023-03-06T17:43:52.890Z,57.84
2023-03-06T17:46:23.184Z,58.26
2023-03-06T17:48:53.263Z,58.49
2023-03-06T17:51:23.234Z,58.47
2023-03-06T17:53:53.401Z,58.15
2023-03-06T17:56:23.601Z,58.02
2023-03-06T17:58:56.752Z,58.50
2023-03-06T18:01:30.304Z,58.74
2023-03-06T18:04:02.289Z,58.65
2023-03-06T18:06:33.639Z,58.69
2023-03-06T18:09:05.045Z,58.07
2023-03-06T18:11:36.891Z,58.48
2023-03-06T18:14:09.616Z,58.21
2023-03-06T18:16:39.674Z,58.03
2023-03-06T18:19:09.982Z,57.86
2023-03-06T18:21:39.847Z,57.84
2023-03-06T18:24:11.313Z,57.93
2023-03-06T18:26:43.049Z,58.06
2023-03-06T18:29:15.796Z,58.22
2023-03-06T18:31:46.933Z,58.92
2023-03-06T18:34:17.929Z,58.55
2023-03-06T18:36:51.701Z,58.63
2023-03-06T18:39:22.511Z,58.56
2023-03-06T18:41:52.586Z,58.95
2023-03-06T18:44:25.549Z,59.20
2023-03-06T18:46:55.592Z,59.12
2023-03-06T18:49:25.733Z,59.20
2023-03-06T18:51:55.943Z,59.24
2023-03-06T18:54:28.644Z,59.56
2023-03-06T18:56:58.671Z,59.23
2023-03-06T18:59:31.146Z,59.36
2023-03-06T19:02:01.039Z,59.40
2023-03-06T19:04:30.963Z,59.33
2023-03-06T19:07:00.915Z,59.26
2023-03-06T19:09:30.812Z,59.10
2023-03-06T19:12:03.208Z,59.25
2023-03-06T19:14:36.388Z,59.03
2023-03-06T19:17:06.399Z,58.98
2023-03-06T19:19:36.453Z,58.89
2023-03-06T19:22:06.515Z,59.10
2023-03-06T19:24:38.912Z,59.02
2023-03-06T19:27:08.802Z,58.48
2023-03-06T19:29:42.395Z,58.49
2023-03-06T19:32:12.522Z,58.65
2023-03-06T19:34:42.590Z,58.39
2023-03-06T19:37:12.564Z,58.33
2023-03-06T19:39:42.823Z,58.52
2023-03-06T19:42:13.934Z,58.18
2023-03-06T19:44:46.747Z,58.17
2023-03-06T19:47:16.701Z,58.24
2023-03-06T19:49:46.668Z,58.20
2023-03-06T19:52:16.894Z,58.18
2023-03-06T19:54:47.258Z,58.33
2023-03-06T19:57:17.471Z,58.12
2023-03-06T19:59:52.246Z,58.37
2023-03-06T20:02:26.568Z,58.31
2023-03-06T20:04:57.347Z,58.18
2023-03-06T20:07:27.324Z,58.33
2023-03-06T20:10:00.700Z,58.55
2023-03-06T20:12:30.660Z,59.02
2023-03-06T20:15:03.654Z,59.48
2023-03-06T20:17:35.892Z,59.57
2023-03-06T20:20:06.254Z,59.79
2023-03-06T20:22:36.687Z,60.37
2023-03-06T20:25:07.488Z,60.25
2023-03-06T20:27:37.674Z,60.19
2023-03-06T20:30:12.056Z,60.21
2023-03-06T20:32:43.982Z,60.25
2023-03-06T20:35:14.797Z,60.55
2023-03-06T20:37:44.770Z,60.53
2023-03-06T20:40:15.800Z,60.88
2023-03-06T20:42:45.939Z,60.73
2023-03-06T20:45:18.795Z,60.66
2023-03-06T20:47:49.580Z,60.23
2023-03-06T20:50:19.717Z,60.29
2023-03-06T20:52:50.310Z,60.46
2023-03-06T20:55:20.764Z,60.14
2023-03-06T20:57:52.163Z,59.86
2023-03-06T21:00:24.867Z,59.80
2023-03-06T21:02:55.391Z,59.71
2023-03-06T21:05:27.364Z,60.31
2023-03-06T21:07:57.710Z,60.51
2023-03-06T21:10:27.630Z,60.23
2023-03-06T21:12:57.585Z,60.11
2023-03-06T21:15:31.340Z,60.01
2023-03-06T21:18:01.429Z,60.16
2023-03-06T21:20:34.575Z,60.36
2023-03-06T21:23:04.951Z,60.72
2023-03-06T21:25:35.611Z,60.20
2023-03-06T21:28:05.550Z,60.14
2023-03-06T21:30:38.518Z,59.92
2023-03-06T21:33:10.698Z,59.95
2023-03-06T21:35:42.102Z,59.56
2023-03-06T21:38:12.648Z,59.34
2023-03-06T21:40:45.530Z,59.39
2023-03-06T21:43:18.513Z,59.47
2023-03-06T21:45:57.565Z,59.17
2023-03-06T21:48:27.887Z,59.13
2023-03-06T21:51:08.023Z,59.29
2023-03-06T21:53:38.180Z,59.69
2023-03-06T21:56:12.164Z,59.32
2023-03-06T21:58:42.566Z,59.30
2023-03-06T22:01:17.078Z,59.29
2023-03-06T22:03:47.158Z,59.31
2023-03-06T22:06:19.685Z,59.38
2023-03-06T22:08:50.210Z,58.89
2023-03-06T22:11:22.412Z,59.09
2023-03-06T22:13:53.328Z,59.16
2023-03-06T22:16:26.175Z,59.24
2023-03-06T22:18:56.238Z,58.99
2023-03-06T22:21:26.739Z,59.25
2023-03-06T22:24:00.036Z,59.53
2023-03-06T22:26:31.575Z,58.86
2023-03-06T22:29:01.606Z,58.77
2023-03-06T22:31:34.109Z,59.26
2023-03-06T22:34:04.374Z,59.35
2023-03-06T22:36:34.637Z,58.97
2023-03-06T22:39:05.809Z,59.09
2023-03-06T22:41:35.720Z,59.06
2023-03-06T22:44:05.634Z,59.47
2023-03-06T22:46:38.299Z,59.84
2023-03-06T22:49:08.290Z,59.54
2023-03-06T22:51:38.254Z,59.36
2023-03-06T22:54:09.777Z,59.41
2023-03-06T22:56:39.677Z,59.69
2023-03-06T22:59:09.592Z,59.88
2023-03-06T23:01:42.220Z,59.73
2023-03-06T23:04:13.008Z,60.22
2023-03-06T23:06:46.739Z,59.60
2023-03-06T23:09:20.691Z,59.88
2023-03-06T23:12:11.597Z,60.43
2023-03-06T23:15:00.283Z,59.86
2023-03-06T23:17:53.987Z,59.90
2023-03-06T23:20:44.969Z,59.93
2023-03-06T23:23:33.180Z,60.28
2023-03-06T23:26:04.293Z,60.09
2023-03-06T23:28:34.926Z,60.14
2023-03-06T23:31:09.787Z,60.15
2023-03-06T23:33:43.084Z,60.10
2023-03-06T23:36:15.792Z,59.93
2023-03-06T23:38:46.784Z,59.88
2023-03-06T23:41:19.399Z,59.78
2023-03-06T23:43:50.440Z,59.86
2023-03-06T23:46:20.862Z,59.73
2023-03-06T23:48:53.392Z,59.18
2023-03-06T23:51:25.150Z,59.18
2023-03-06T23:54:00.117Z,59.04
2023-03-06T23:56:31.659Z,58.86
2023-03-06T23:59:01.544Z,59.10
